sensor_id;sensor_type;location;lat;lon;timestamp;pressure;altitude;pressure_sealevel;temperature
24278;BMP280;12394;42.692;23.314;2023-04-03T00:01:15;94389.53;;;9.64
24278;BMP280;12394;42.692;23.314;2023-04-03T00:03:40;94393.69;;;9.62
24278;BMP280;12394;42.692;23.314;2023-04-03T00:06:10;94359.97;;;9.44
24278;BMP280;12394;42.692;23.314;2023-04-03T00:08:36;94387.72;;;9.61
24278;BMP280;12394;42.692;23.314;2023-04-03T00:11:02;94380.56;;;9.65
24278;BMP280;12394;42.692;23.314;2023-04-03T00:13:28;94377.59;;;9.63
24278;BMP280;12394;42.692;23.314;2023-04-03T00:15:54;94378.75;;;9.62
24278;BMP280;12394;42.692;23.314;2023-04-03T00:18:19;94360.97;;;9.54
24278;BMP280;12394;42.692;23.314;2023-04-03T00:20:45;94376.91;;;9.59
24278;BMP280;12394;42.692;23.314;2023-04-03T00:23:11;94365.09;;;9.51
24278;BMP280;12394;42.692;23.314;2023-04-03T00:25:36;94375.00;;;9.63
24278;BMP280;12394;42.692;23.314;2023-04-03T00:28:02;94371.81;;;9.52
24278;BMP280;12394;42.692;23.314;2023-04-03T00:30:28;94376.88;;;9.32
24278;BMP280;12394;42.692;23.314;2023-04-03T00:32:54;94382.25;;;9.18
24278;BMP280;12394;42.692;23.314;2023-04-03T00:35:20;94381.56;;;9.14
24278;BMP280;12394;42.692;23.314;2023-04-03T00:37:47;94365.97;;;9.07
24278;BMP280;12394;42.692;23.314;2023-04-03T00:40:14;94379.34;;;9.13
24278;BMP280;12394;42.692;23.314;2023-04-03T00:42:40;94378.59;;;9.12
24278;BMP280;12394;42.692;23.314;2023-04-03T00:45:29;94388.63;;;9.14
24278;BMP280;12394;42.692;23.314;2023-04-03T00:47:56;94376.00;;;9.09
24278;BMP280;12394;42.692;23.314;2023-04-03T00:50:24;94369.84;;;8.92
24278;BMP280;12394;42.692;23.314;2023-04-03T00:52:50;94379.44;;;9.02
24278;BMP280;12394;42.692;23.314;2023-04-03T00:55:16;94370.97;;;8.95
24278;BMP280;12394;42.692;23.314;2023-04-03T00:57:42;94382.06;;;9.02
24278;BMP280;12394;42.692;23.314;2023-04-03T01:00:11;94349.88;;;8.78
24278;BMP280;12394;42.692;23.314;2023-04-03T01:02:37;94383.88;;;9.05
24278;BMP280;12394;42.692;23.314;2023-04-03T01:05:06;94369.47;;;8.93
24278;BMP280;12394;42.692;23.314;2023-04-03T01:07:32;94387.66;;;9.01
24278;BMP280;12394;42.692;23.314;2023-04-03T01:10:02;94391.00;;;9.01
24278;BMP280;12394;42.692;23.314;2023-04-03T01:12:32;94387.31;;;8.99
24278;BMP280;12394;42.692;23.314;2023-04-03T01:15:01;94391.06;;;8.98
24278;BMP280;12394;42.692;23.314;2023-04-03T01:25:14;94394.16;;;8.82
24278;BMP280;12394;42.692;23.314;2023-04-03T01:27:40;94387.09;;;8.82
24278;BMP280;12394;42.692;23.314;2023-04-03T01:30:06;94383.81;;;8.75
24278;BMP280;12394;42.692;23.314;2023-04-03T01:32:31;94386.09;;;8.69
24278;BMP280;12394;42.692;23.314;2023-04-03T01:34:57;94393.53;;;8.71
24278;BMP280;12394;42.692;23.314;2023-04-03T01:37:22;94380.63;;;8.57
24278;BMP280;12394;42.692;23.314;2023-04-03T01:39:48;94387.34;;;8.58
24278;BMP280;12394;42.692;23.314;2023-04-03T01:42:13;94356.97;;;8.37
24278;BMP280;12394;42.692;23.314;2023-04-03T01:44:38;94385.09;;;8.56
24278;BMP280;12394;42.692;23.314;2023-04-03T01:47:06;94389.59;;;8.52
24278;BMP280;12394;42.692;23.314;2023-04-03T01:49:32;94381.13;;;8.41
24278;BMP280;12394;42.692;23.314;2023-04-03T01:51:57;94388.56;;;8.42
24278;BMP280;12394;42.692;23.314;2023-04-03T01:54:23;94375.22;;;8.33
24278;BMP280;12394;42.692;23.314;2023-04-03T01:56:48;94381.56;;;8.32
24278;BMP280;12394;42.692;23.314;2023-04-03T01:59:14;94385.28;;;8.35
24278;BMP280;12394;42.692;23.314;2023-04-03T02:01:42;94379.75;;;8.29
24278;BMP280;12394;42.692;23.314;2023-04-03T02:04:10;94390.88;;;8.33
24278;BMP280;12394;42.692;23.314;2023-04-03T02:06:36;94389.03;;;8.30
24278;BMP280;12394;42.692;23.314;2023-04-03T02:09:02;94383.81;;;8.27
24278;BMP280;12394;42.692;23.314;2023-04-03T02:11:27;94384.25;;;8.22
24278;BMP280;12394;42.692;23.314;2023-04-03T02:13:53;94389.06;;;8.20
24278;BMP280;12394;42.692;23.314;2023-04-03T02:16:18;94388.38;;;8.16
24278;BMP280;12394;42.692;23.314;2023-04-03T02:18:43;94382.47;;;8.08
24278;BMP280;12394;42.692;23.314;2023-04-03T02:21:09;94391.00;;;8.12
24278;BMP280;12394;42.692;23.314;2023-04-03T02:23:34;94393.63;;;8.05
24278;BMP280;12394;42.692;23.314;2023-04-03T02:26:13;94384.03;;;7.98
24278;BMP280;12394;42.692;23.314;2023-04-03T02:28:39;94374.38;;;7.92
24278;BMP280;12394;42.692;23.314;2023-04-03T02:31:06;94376.63;;;7.90
24278;BMP280;12394;42.692;23.314;2023-04-03T02:33:32;94375.09;;;7.96
24278;BMP280;12394;42.692;23.314;2023-04-03T02:35:57;94371.41;;;7.93
24278;BMP280;12394;42.692;23.314;2023-04-03T02:38:23;94361.06;;;7.79
24278;BMP280;12394;42.692;23.314;2023-04-03T02:40:49;94356.56;;;7.83
24278;BMP280;12394;42.692;23.314;2023-04-03T02:43:16;94375.91;;;7.82
24278;BMP280;12394;42.692;23.314;2023-04-03T02:45:41;94367.72;;;7.87
24278;BMP280;12394;42.692;23.314;2023-04-03T02:48:07;94374.13;;;7.72
24278;BMP280;12394;42.692;23.314;2023-04-03T02:50:32;94366.00;;;7.63
24278;BMP280;12394;42.692;23.314;2023-04-03T02:52:57;94361.91;;;7.62
24278;BMP280;12394;42.692;23.314;2023-04-03T02:55:23;94340.06;;;7.45
24278;BMP280;12394;42.692;23.314;2023-04-03T02:57:48;94359.72;;;7.50
24278;BMP280;12394;42.692;23.314;2023-04-03T05:23:37;94423.53;;;9.27
24278;BMP280;12394;42.692;23.314;2023-04-03T05:26:02;94435.69;;;9.41
24278;BMP280;12394;42.692;23.314;2023-04-03T05:28:28;94434.78;;;9.54
24278;BMP280;12394;42.692;23.314;2023-04-03T05:30:55;94425.66;;;9.69
24278;BMP280;12394;42.692;23.314;2023-04-03T05:33:21;94430.09;;;9.76
24278;BMP280;12394;42.692;23.314;2023-04-03T05:35:47;94425.94;;;9.78
24278;BMP280;12394;42.692;23.314;2023-04-03T05:38:12;94424.06;;;9.79
24278;BMP280;12394;42.692;23.314;2023-04-03T05:40:38;94430.72;;;9.83
24278;BMP280;12394;42.692;23.314;2023-04-03T05:43:04;94428.09;;;9.83
24278;BMP280;12394;42.692;23.314;2023-04-03T05:45:30;94435.59;;;9.81
24278;BMP280;12394;42.692;23.314;2023-04-03T05:47:55;94435.19;;;9.83
24278;BMP280;12394;42.692;23.314;2023-04-03T05:50:21;94420.88;;;9.95
24278;BMP280;12394;42.692;23.314;2023-04-03T05:52:49;94400.41;;;9.90
24278;BMP280;12394;42.692;23.314;2023-04-03T05:55:15;94415.69;;;9.91
24278;BMP280;12394;42.692;23.314;2023-04-03T05:57:40;94411.63;;;9.87
24278;BMP280;12394;42.692;23.314;2023-04-03T06:00:07;94413.97;;;10.08
24278;BMP280;12394;42.692;23.314;2023-04-03T06:02:35;94400.22;;;10.04
24278;BMP280;12394;42.692;23.314;2023-04-03T06:05:01;94409.16;;;10.06
24278;BMP280;12394;42.692;23.314;2023-04-03T06:07:28;94410.94;;;10.13
24278;BMP280;12394;42.692;23.314;2023-04-03T06:09:55;94405.50;;;10.27
24278;BMP280;12394;42.692;23.314;2023-04-03T06:12:22;94389.94;;;10.20
24278;BMP280;12394;42.692;23.314;2023-04-03T06:14:48;94392.19;;;10.18
24278;BMP280;12394;42.692;23.314;2023-04-03T06:17:15;94393.34;;;10.13
24278;BMP280;12394;42.692;23.314;2023-04-03T06:19:43;94384.88;;;10.06
24278;BMP280;12394;42.692;23.314;2023-04-03T06:22:08;94383.38;;;10.08
24278;BMP280;12394;42.692;23.314;2023-04-03T06:24:34;94388.59;;;10.08
24278;BMP280;12394;42.692;23.314;2023-04-03T06:27:00;94386.38;;;10.07
24278;BMP280;12394;42.692;23.314;2023-04-03T06:29:27;94410.19;;;10.12
24278;BMP280;12394;42.692;23.314;2023-04-03T06:31:54;94404.50;;;10.21
24278;BMP280;12394;42.692;23.314;2023-04-03T06:34:19;94394.28;;;10.30
24278;BMP280;12394;42.692;23.314;2023-04-03T06:36:45;94403.81;;;10.40
24278;BMP280;12394;42.692;23.314;2023-04-03T06:39:15;94410.66;;;10.34
24278;BMP280;12394;42.692;23.314;2023-04-03T06:41:41;94408.88;;;10.27
24278;BMP280;12394;42.692;23.314;2023-04-03T06:44:07;94416.47;;;10.18
24278;BMP280;12394;42.692;23.314;2023-04-03T06:46:36;94415.56;;;10.02
24278;BMP280;12394;42.692;23.314;2023-04-03T06:49:02;94412.81;;;10.09
24278;BMP280;12394;42.692;23.314;2023-04-03T06:51:29;94398.97;;;10.15
24278;BMP280;12394;42.692;23.314;2023-04-03T06:53:56;94390.84;;;10.33
24278;BMP280;12394;42.692;23.314;2023-04-03T06:56:22;94416.34;;;10.52
24278;BMP280;12394;42.692;23.314;2023-04-03T06:58:48;94415.94;;;10.77
24278;BMP280;12394;42.692;23.314;2023-04-03T07:01:16;94409.41;;;10.65
24278;BMP280;12394;42.692;23.314;2023-04-03T07:03:43;94419.56;;;10.83
24278;BMP280;12394;42.692;23.314;2023-04-03T07:06:11;94419.56;;;11.06
24278;BMP280;12394;42.692;23.314;2023-04-03T07:08:37;94413.28;;;11.00
24278;BMP280;12394;42.692;23.314;2023-04-03T07:11:03;94410.81;;;11.13
24278;BMP280;12394;42.692;23.314;2023-04-03T07:13:28;94404.59;;;11.27
24278;BMP280;12394;42.692;23.314;2023-04-03T07:15:55;94384.72;;;11.29
24278;BMP280;12394;42.692;23.314;2023-04-03T07:18:22;94397.00;;;11.52
24278;BMP280;12394;42.692;23.314;2023-04-03T07:20:47;94394.91;;;11.63
24278;BMP280;12394;42.692;23.314;2023-04-03T07:23:13;94400.72;;;11.74
24278;BMP280;12394;42.692;23.314;2023-04-03T07:25:43;94395.84;;;11.92
24278;BMP280;12394;42.692;23.314;2023-04-03T07:28:09;94386.09;;;11.93
24278;BMP280;12394;42.692;23.314;2023-04-03T07:30:35;94398.56;;;12.05
24278;BMP280;12394;42.692;23.314;2023-04-03T07:33:07;94394.09;;;12.22
24278;BMP280;12394;42.692;23.314;2023-04-03T07:35:32;94392.44;;;12.44
24278;BMP280;12394;42.692;23.314;2023-04-03T07:37:58;94392.84;;;12.59
24278;BMP280;12394;42.692;23.314;2023-04-03T07:40:23;94388.84;;;12.99
24278;BMP280;12394;42.692;23.314;2023-04-03T07:42:49;94390.88;;;13.08
24278;BMP280;12394;42.692;23.314;2023-04-03T07:45:15;94378.91;;;13.35
24278;BMP280;12394;42.692;23.314;2023-04-03T07:47:42;94368.38;;;13.35
24278;BMP280;12394;42.692;23.314;2023-04-03T07:50:08;94362.97;;;13.55
24278;BMP280;12394;42.692;23.314;2023-04-03T07:52:33;94371.00;;;13.77
24278;BMP280;12394;42.692;23.314;2023-04-03T07:54:59;94373.94;;;13.92
24278;BMP280;12394;42.692;23.314;2023-04-03T07:57:25;94374.69;;;14.05
24278;BMP280;12394;42.692;23.314;2023-04-03T07:59:50;94374.97;;;13.69
24278;BMP280;12394;42.692;23.314;2023-04-03T08:02:16;94370.69;;;13.75
24278;BMP280;12394;42.692;23.314;2023-04-03T08:04:41;94355.53;;;13.79
24278;BMP280;12394;42.692;23.314;2023-04-03T08:07:07;94358.81;;;13.96
24278;BMP280;12394;42.692;23.314;2023-04-03T08:09:32;94367.13;;;13.94
24278;BMP280;12394;42.692;23.314;2023-04-03T08:11:58;94365.72;;;13.77
24278;BMP280;12394;42.692;23.314;2023-04-03T08:14:24;94356.97;;;13.55
24278;BMP280;12394;42.692;23.314;2023-04-03T08:16:50;94353.53;;;13.70
24278;BMP280;12394;42.692;23.314;2023-04-03T08:19:16;94357.66;;;13.84
24278;BMP280;12394;42.692;23.314;2023-04-03T08:21:43;94362.91;;;13.97
24278;BMP280;12394;42.692;23.314;2023-04-03T08:24:09;94350.28;;;13.92
24278;BMP280;12394;42.692;23.314;2023-04-03T08:26:35;94348.91;;;13.74
24278;BMP280;12394;42.692;23.314;2023-04-03T08:29:01;94361.84;;;13.69
24278;BMP280;12394;42.692;23.314;2023-04-03T08:31:27;94359.31;;;13.78
24278;BMP280;12394;42.692;23.314;2023-04-03T08:33:53;94368.28;;;13.93
24278;BMP280;12394;42.692;23.314;2023-04-03T08:36:44;94360.19;;;14.38
24278;BMP280;12394;42.692;23.314;2023-04-03T08:39:10;94357.53;;;14.25
24278;BMP280;12394;42.692;23.314;2023-04-03T08:41:37;94342.41;;;14.17
24278;BMP280;12394;42.692;23.314;2023-04-03T08:44:44;94337.53;;;14.28
24278;BMP280;12394;42.692;23.314;2023-04-03T08:47:23;94321.13;;;14.37
24278;BMP280;12394;42.692;23.314;2023-04-03T08:50:02;94324.25;;;14.32
24278;BMP280;12394;42.692;23.314;2023-04-03T08:52:44;94329.41;;;14.48
24278;BMP280;12394;42.692;23.314;2023-04-03T08:57:57;94334.47;;;14.42
24278;BMP280;12394;42.692;23.314;2023-04-03T09:00:25;94329.13;;;14.80
24278;BMP280;12394;42.692;23.314;2023-04-03T09:02:56;94321.09;;;15.05
24278;BMP280;12394;42.692;23.314;2023-04-03T09:05:39;94317.19;;;15.10
24278;BMP280;12394;42.692;23.314;2023-04-03T09:08:27;94320.34;;;15.05
24278;BMP280;12394;42.692;23.314;2023-04-03T09:13:57;94300.44;;;14.82
24278;BMP280;12394;42.692;23.314;2023-04-03T09:21:37;94300.19;;;15.33
24278;BMP280;12394;42.692;23.314;2023-04-03T09:24:05;94292.78;;;15.19
24278;BMP280;12394;42.692;23.314;2023-04-03T09:26:45;94287.91;;;15.08
24278;BMP280;12394;42.692;23.314;2023-04-03T09:29:21;94284.28;;;15.14
24278;BMP280;12394;42.692;23.314;2023-04-03T09:31:50;94283.59;;;15.23
24278;BMP280;12394;42.692;23.314;2023-04-03T09:34:29;94277.22;;;15.11
24278;BMP280;12394;42.692;23.314;2023-04-03T09:37:00;94282.94;;;15.10
24278;BMP280;12394;42.692;23.314;2023-04-03T09:39:32;94276.59;;;15.29
24278;BMP280;12394;42.692;23.314;2023-04-03T09:42:04;94282.34;;;15.37
24278;BMP280;12394;42.692;23.314;2023-04-03T09:44:35;94276.78;;;15.66
24278;BMP280;12394;42.692;23.314;2023-04-03T09:47:23;94265.22;;;15.72
24278;BMP280;12394;42.692;23.314;2023-04-03T09:49:50;94271.09;;;15.45
24278;BMP280;12394;42.692;23.314;2023-04-03T09:52:24;94265.28;;;15.50
24278;BMP280;12394;42.692;23.314;2023-04-03T09:54:50;94264.78;;;15.65
24278;BMP280;12394;42.692;23.314;2023-04-03T09:57:16;94261.38;;;15.33
24278;BMP280;12394;42.692;23.314;2023-04-03T09:59:59;94212.06;;;15.03
24278;BMP280;12394;42.692;23.314;2023-04-03T10:02:41;94250.88;;;15.11
24278;BMP280;12394;42.692;23.314;2023-04-03T10:05:30;94253.22;;;15.09
24278;BMP280;12394;42.692;23.314;2023-04-03T10:10:34;94248.38;;;14.86
24278;BMP280;12394;42.692;23.314;2023-04-03T10:13:19;94252.97;;;14.73
24278;BMP280;12394;42.692;23.314;2023-04-03T10:16:01;94249.94;;;14.53
24278;BMP280;12394;42.692;23.314;2023-04-03T10:21:23;94248.13;;;14.15
24278;BMP280;12394;42.692;23.314;2023-04-03T10:26:42;94238.44;;;14.12
24278;BMP280;12394;42.692;23.314;2023-04-03T10:31:51;94224.47;;;14.03
24278;BMP280;12394;42.692;23.314;2023-04-03T10:34:25;94215.78;;;13.93
24278;BMP280;12394;42.692;23.314;2023-04-03T10:37:22;94224.84;;;14.14
24278;BMP280;12394;42.692;23.314;2023-04-03T10:40:24;94222.19;;;14.26
24278;BMP280;12394;42.692;23.314;2023-04-03T10:45:51;94221.28;;;14.20
24278;BMP280;12394;42.692;23.314;2023-04-03T10:51:35;94214.50;;;13.98
24278;BMP280;12394;42.692;23.314;2023-04-03T10:54:13;94216.81;;;13.96
24278;BMP280;12394;42.692;23.314;2023-04-03T10:57:12;94215.94;;;14.11
24278;BMP280;12394;42.692;23.314;2023-04-03T10:59:52;94210.88;;;14.17
24278;BMP280;12394;42.692;23.314;2023-04-03T11:05:39;94205.88;;;13.97
24278;BMP280;12394;42.692;23.314;2023-04-03T11:08:30;94213.06;;;13.84
24278;BMP280;12394;42.692;23.314;2023-04-03T11:11:08;94225.91;;;13.57
24278;BMP280;12394;42.692;23.314;2023-04-03T11:13:41;94224.84;;;13.29
24278;BMP280;12394;42.692;23.314;2023-04-03T11:16:14;94214.75;;;13.15
24278;BMP280;12394;42.692;23.314;2023-04-03T11:18:49;94228.00;;;13.11
24278;BMP280;12394;42.692;23.314;2023-04-03T11:21:21;94220.78;;;12.99
24278;BMP280;12394;42.692;23.314;2023-04-03T11:23:51;94225.09;;;12.93
24278;BMP280;12394;42.692;23.314;2023-04-03T11:26:22;94224.88;;;12.87
24278;BMP280;12394;42.692;23.314;2023-04-03T11:28:57;94222.88;;;12.50
24278;BMP280;12394;42.692;23.314;2023-04-03T11:36:55;94204.88;;;12.07
24278;BMP280;12394;42.692;23.314;2023-04-03T11:41:49;94214.88;;;12.41
24278;BMP280;12394;42.692;23.314;2023-04-03T11:46:59;94213.84;;;12.22
24278;BMP280;12394;42.692;23.314;2023-04-03T12:00:55;94216.59;;;11.54
24278;BMP280;12394;42.692;23.314;2023-04-03T12:05:52;94226.19;;;11.60
24278;BMP280;12394;42.692;23.314;2023-04-03T12:21:14;94210.06;;;10.94
24278;BMP280;12394;42.692;23.314;2023-04-03T12:26:43;94193.91;;;10.59
24278;BMP280;12394;42.692;23.314;2023-04-03T12:29:25;94210.22;;;10.47
24278;BMP280;12394;42.692;23.314;2023-04-03T12:38:17;94202.13;;;9.95
24278;BMP280;12394;42.692;23.314;2023-04-03T12:41:27;94190.41;;;9.83
24278;BMP280;12394;42.692;23.314;2023-04-03T12:46:42;94186.81;;;9.74
24278;BMP280;12394;42.692;23.314;2023-04-03T12:49:29;94178.66;;;9.72
24278;BMP280;12394;42.692;23.314;2023-04-03T12:51:59;94172.34;;;9.69
24278;BMP280;12394;42.692;23.314;2023-04-03T12:54:38;94175.81;;;9.63
24278;BMP280;12394;42.692;23.314;2023-04-03T12:57:11;94169.19;;;9.58
24278;BMP280;12394;42.692;23.314;2023-04-03T12:59:37;94166.59;;;9.55
24278;BMP280;12394;42.692;23.314;2023-04-03T13:02:15;94170.63;;;9.59
24278;BMP280;12394;42.692;23.314;2023-04-03T13:04:58;94174.41;;;9.58
24278;BMP280;12394;42.692;23.314;2023-04-03T13:07:31;94177.50;;;9.50
24278;BMP280;12394;42.692;23.314;2023-04-03T13:12:33;94171.09;;;9.31
24278;BMP280;12394;42.692;23.314;2023-04-03T13:15:10;94172.66;;;9.25
24278;BMP280;12394;42.692;23.314;2023-04-03T13:17:39;94164.47;;;9.23
24278;BMP280;12394;42.692;23.314;2023-04-03T13:20:17;94140.94;;;9.03
24278;BMP280;12394;42.692;23.314;2023-04-03T13:23:02;94169.66;;;9.26
24278;BMP280;12394;42.692;23.314;2023-04-03T13:25:33;94171.28;;;9.17
24278;BMP280;12394;42.692;23.314;2023-04-03T13:28:01;94161.00;;;9.06
24278;BMP280;12394;42.692;23.314;2023-04-03T13:30:31;94158.00;;;9.08
24278;BMP280;12394;42.692;23.314;2023-04-03T13:33:00;94158.00;;;9.08
24278;BMP280;12394;42.692;23.314;2023-04-03T13:35:38;94150.00;;;8.91
24278;BMP280;12394;42.692;23.314;2023-04-03T13:38:24;94165.28;;;8.93
24278;BMP280;12394;42.692;23.314;2023-04-03T13:40:56;94151.69;;;8.78
24278;BMP280;12394;42.692;23.314;2023-04-03T13:43:32;94156.81;;;8.85
24278;BMP280;12394;42.692;23.314;2023-04-03T13:46:24;94155.41;;;8.77
24278;BMP280;12394;42.692;23.314;2023-04-03T13:48:53;94158.09;;;8.74
24278;BMP280;12394;42.692;23.314;2023-04-03T13:51:24;94146.16;;;8.73
24278;BMP280;12394;42.692;23.314;2023-04-03T13:53:57;94138.44;;;8.66
24278;BMP280;12394;42.692;23.314;2023-04-03T13:56:32;94147.75;;;8.67
24278;BMP280;12394;42.692;23.314;2023-04-03T13:59:00;94144.47;;;8.63
24278;BMP280;12394;42.692;23.314;2023-04-03T14:01:35;94148.19;;;8.62
24278;BMP280;12394;42.692;23.314;2023-04-03T14:04:18;94139.69;;;8.58
24278;BMP280;12394;42.692;23.314;2023-04-03T14:06:44;94138.25;;;8.53
24278;BMP280;12394;42.692;23.314;2023-04-03T14:09:09;94134.41;;;8.61
24278;BMP280;12394;42.692;23.314;2023-04-03T14:11:35;94137.75;;;8.62
24278;BMP280;12394;42.692;23.314;2023-04-03T14:14:05;94132.59;;;8.58
24278;BMP280;12394;42.692;23.314;2023-04-03T14:16:34;94138.50;;;8.62
24278;BMP280;12394;42.692;23.314;2023-04-03T14:19:02;94125.22;;;8.53
24278;BMP280;12394;42.692;23.314;2023-04-03T14:21:28;94132.94;;;8.60
24278;BMP280;12394;42.692;23.314;2023-04-03T14:23:53;94127.28;;;8.65
24278;BMP280;12394;42.692;23.314;2023-04-03T14:26:23;94128.75;;;8.66
24278;BMP280;12394;42.692;23.314;2023-04-03T14:28:53;94123.69;;;8.56
24278;BMP280;12394;42.692;23.314;2023-04-03T14:31:19;94125.16;;;8.57
24278;BMP280;12394;42.692;23.314;2023-04-03T14:33:45;94126.66;;;8.54
24278;BMP280;12394;42.692;23.314;2023-04-03T14:36:15;94130.00;;;8.58
24278;BMP280;12394;42.692;23.314;2023-04-03T14:38:41;94123.69;;;8.56
24278;BMP280;12394;42.692;23.314;2023-04-03T14:41:27;94128.06;;;8.62
24278;BMP280;12394;42.692;23.314;2023-04-03T14:43:53;94120.75;;;8.50
24278;BMP280;12394;42.692;23.314;2023-04-03T14:46:39;94118.56;;;8.48
24278;BMP280;12394;42.692;23.314;2023-04-03T14:49:22;94116.28;;;8.51
24278;BMP280;12394;42.692;23.314;2023-04-03T14:51:49;94115.97;;;8.48
24278;BMP280;12394;42.692;23.314;2023-04-03T14:54:18;94101.56;;;8.37
24278;BMP280;12394;42.692;23.314;2023-04-03T14:56:47;94095.66;;;8.33
24278;BMP280;12394;42.692;23.314;2023-04-03T14:59:13;94113.72;;;8.47
24278;BMP280;12394;42.692;23.314;2023-04-03T15:01:39;94102.19;;;8.48
24278;BMP280;12394;42.692;23.314;2023-04-03T15:04:12;94107.03;;;8.46
24278;BMP280;12394;42.692;23.314;2023-04-03T15:06:38;94105.16;;;8.46
24278;BMP280;12394;42.692;23.314;2023-04-03T15:09:03;94109.53;;;8.57
24278;BMP280;12394;42.692;23.314;2023-04-03T15:11:28;94095.44;;;8.51
24278;BMP280;12394;42.692;23.314;2023-04-03T15:13:54;94093.19;;;8.53
24278;BMP280;12394;42.692;23.314;2023-04-03T15:16:19;94106.97;;;8.53
24278;BMP280;12394;42.692;23.314;2023-04-03T15:18:46;94097.31;;;8.50
24278;BMP280;12394;42.692;23.314;2023-04-03T15:21:12;94090.28;;;8.47
24278;BMP280;12394;42.692;23.314;2023-04-03T15:23:37;94087.66;;;8.47
24278;BMP280;12394;42.692;23.314;2023-04-03T15:26:03;94077.63;;;8.45
24278;BMP280;12394;42.692;23.314;2023-04-03T15:28:37;94080.59;;;8.47
24278;BMP280;12394;42.692;23.314;2023-04-03T15:31:04;94075.00;;;8.49
24278;BMP280;12394;42.692;23.314;2023-04-03T15:33:31;94093.13;;;8.56
24278;BMP280;12394;42.692;23.314;2023-04-03T15:35:58;94072.28;;;8.56
24278;BMP280;12394;42.692;23.314;2023-04-03T15:38:23;94089.00;;;8.59
24278;BMP280;12394;42.692;23.314;2023-04-03T15:40:49;94060.06;;;8.49
24278;BMP280;12394;42.692;23.314;2023-04-03T15:43:14;94074.53;;;8.54
24278;BMP280;12394;42.692;23.314;2023-04-03T15:45:41;94070.81;;;8.55
24278;BMP280;12394;42.692;23.314;2023-04-03T15:48:07;94056.84;;;8.42
24278;BMP280;12394;42.692;23.314;2023-04-03T15:50:33;94061.31;;;8.41
24278;BMP280;12394;42.692;23.314;2023-04-03T15:53:00;94063.16;;;8.41
24278;BMP280;12394;42.692;23.314;2023-04-03T15:55:28;94063.91;;;8.41
24278;BMP280;12394;42.692;23.314;2023-04-03T15:57:54;94048.03;;;8.29
24278;BMP280;12394;42.692;23.314;2023-04-03T16:00:21;94051.63;;;8.42
24278;BMP280;12394;42.692;23.314;2023-04-03T16:02:48;94056.94;;;8.35
24278;BMP280;12394;42.692;23.314;2023-04-03T16:05:15;94055.47;;;8.34
24278;BMP280;12394;42.692;23.314;2023-04-03T16:07:42;94037.63;;;8.29
24278;BMP280;12394;42.692;23.314;2023-04-03T16:10:09;94038.09;;;8.20
24278;BMP280;12394;42.692;23.314;2023-04-03T16:12:36;94044.75;;;8.25
24278;BMP280;12394;42.692;23.314;2023-04-03T16:15:02;94047.34;;;8.25
24278;BMP280;12394;42.692;23.314;2023-04-03T16:17:28;94044.81;;;8.21
24278;BMP280;12394;42.692;23.314;2023-04-03T16:19:54;94037.59;;;8.32
24278;BMP280;12394;42.692;23.314;2023-04-03T16:22:21;94037.28;;;8.30
24278;BMP280;12394;42.692;23.314;2023-04-03T16:24:48;94021.25;;;8.28
24278;BMP280;12394;42.692;23.314;2023-04-03T16:27:14;94014.56;;;8.31
24278;BMP280;12394;42.692;23.314;2023-04-03T16:29:40;94022.69;;;8.33
24278;BMP280;12394;42.692;23.314;2023-04-03T16:32:05;94022.69;;;8.33
24278;BMP280;12394;42.692;23.314;2023-04-03T16:34:31;94026.00;;;8.37
24278;BMP280;12394;42.692;23.314;2023-04-03T16:36:58;94012.63;;;8.35
24278;BMP280;12394;42.692;23.314;2023-04-03T16:39:23;94011.03;;;8.44
24278;BMP280;12394;42.692;23.314;2023-04-03T16:41:48;93998.75;;;8.41
24278;BMP280;12394;42.692;23.314;2023-04-03T16:44:14;93970.59;;;8.33
24278;BMP280;12394;42.692;23.314;2023-04-03T16:46:39;93967.25;;;8.32
24278;BMP280;12394;42.692;23.314;2023-04-03T16:49:05;93959.38;;;8.36
24278;BMP280;12394;42.692;23.314;2023-04-03T16:51:30;93942.78;;;8.23
24278;BMP280;12394;42.692;23.314;2023-04-03T16:53:57;93937.94;;;8.25
24278;BMP280;12394;42.692;23.314;2023-04-03T16:56:22;93920.53;;;8.18
24278;BMP280;12394;42.692;23.314;2023-04-03T16:58:48;93937.25;;;8.21
24278;BMP280;12394;42.692;23.314;2023-04-03T17:01:17;93918.66;;;8.19
24278;BMP280;12394;42.692;23.314;2023-04-03T17:03:43;93926.84;;;8.21
24278;BMP280;12394;42.692;23.314;2023-04-03T17:06:11;93923.56;;;8.13
24278;BMP280;12394;42.692;23.314;2023-04-03T17:08:45;93923.97;;;8.12
24278;BMP280;12394;42.692;23.314;2023-04-03T17:11:12;93921.13;;;8.02
24278;BMP280;12394;42.692;23.314;2023-04-03T17:13:37;93912.63;;;7.98
24278;BMP280;12394;42.692;23.314;2023-04-03T17:16:05;93912.34;;;7.93
24278;BMP280;12394;42.692;23.314;2023-04-03T17:18:33;93892.44;;;7.79
24278;BMP280;12394;42.692;23.314;2023-04-03T17:20:58;93913.72;;;8.01
24278;BMP280;12394;42.692;23.314;2023-04-03T17:23:25;93912.53;;;8.05
24278;BMP280;12394;42.692;23.314;2023-04-03T17:25:50;93908.31;;;7.88
24278;BMP280;12394;42.692;23.314;2023-04-03T17:28:16;93915.00;;;7.89
24278;BMP280;12394;42.692;23.314;2023-04-03T17:30:41;93912.72;;;7.91
24278;BMP280;12394;42.692;23.314;2023-04-03T17:33:07;93892.44;;;7.79
24278;BMP280;12394;42.692;23.314;2023-04-03T17:35:32;93911.72;;;7.85
24278;BMP280;12394;42.692;23.314;2023-04-03T17:37:58;93906.50;;;7.85
24278;BMP280;12394;42.692;23.314;2023-04-03T17:40:23;93882.09;;;7.76
24278;BMP280;12394;42.692;23.314;2023-04-03T17:42:49;93892.34;;;7.86
24278;BMP280;12394;42.692;23.314;2023-04-03T17:45:14;93878.34;;;7.77
24278;BMP280;12394;42.692;23.314;2023-04-03T17:47:40;93904.22;;;7.87
24278;BMP280;12394;42.692;23.314;2023-04-03T17:50:06;93888.72;;;7.80
24278;BMP280;12394;42.692;23.314;2023-04-03T17:52:31;93882.09;;;7.76
24278;BMP280;12394;42.692;23.314;2023-04-03T17:54:57;93890.88;;;7.85
24278;BMP280;12394;42.692;23.314;2023-04-03T17:57:23;93893.38;;;7.92
24278;BMP280;12394;42.692;23.314;2023-04-03T17:59:48;93896.22;;;8.01
24278;BMP280;12394;42.692;23.314;2023-04-03T18:02:15;93882.50;;;7.97
24278;BMP280;12394;42.692;23.314;2023-04-03T18:04:40;93887.59;;;8.04
24278;BMP280;12394;42.692;23.314;2023-04-03T18:07:06;93890.56;;;8.07
24278;BMP280;12394;42.692;23.314;2023-04-03T18:09:34;93895.34;;;8.12